Startpagina
METAR-TAF:

METAR-TAF

Vliegvelden :

Henri Coandă International Airport

Boekarest, Roemenië

breedte: 44-33N, lengte: 026-06E, hoogte: 95 m

Actueel weer

Dit bericht is 24 minuten geleden gemaakt, om 10:00 UTC
Wind 9 kt uit het oosten, variërend tussen het noordoosten en het oostzuidoosten
Temperatuur 21°C
Vochtigheid 53%
Druk 1021 hPa
Zicht 10 km of meer
geen wolken onder 1500 m en geen cumulonimbus

METAR: LROP 231000Z 09009KT 050V120 CAVOK 21/11 Q1021 NOSIG

Tijdstip: 13:24 (10:24 UTC)

Verwachting

Dit bericht is 5 uur en het 24 minuten geleden gemaakt, om 05:00 UTC
Verwachting geldig van 23 om 06 UTC tot 24 om 06 UTC
Wind 12 kt uit het oosten
Zicht 10 km of meer
geen wolken onder 1500 m en geen cumulonimbus
Wijzigt naar
van 23 om 20 UTC tot 23 om 22 UTC
Wind 4 kt uit variabele richting

TAF: LROP 230500Z 2306/2406 08012KT CAVOK BECMG 2320/2322 VRB04KT

Waarnemingen en weersverwachtingen van meer dan 4000 vliegvelden (METAR en TAF).

De beschikbare stations zijn de gele en rode punten op de kaart.

Ga met uw muis naar het station om de naam te zien.

Klik dan om waarnemingen en weersverwachtingen te zien.

kaart wijzigen: klik op de groene knoppen met een zwart kruis om in te zoomen, op de groene knop met een streepje om uit te zoomen of op de groene pijlen voor aangrenzende kaarten.


METAR-TAF: